Chelmsley Wood, United Kingdom
Current Conditions -  °F | °C
As of 1:50 PM on Thursday 23 Oct 2014 (Local Time) from EGBB Reporting Station
Broken Clouds Broken Clouds  
Wind Chill: 59°   Ceiling: 1600
Heat Index: 59°   Visibility: 6mi
Dew Point: 54°   Wind: 12mph
Humidity: 82%   Direction: 200°SSW
Pressure: 30"   Gusts: NA
Location:  52.48°N, 1.74°W
Report Text: EGBB 231250Z 20010KT 160V240 9999 BKN016 BKN034 15/12 Q1016
Loading
Personal Weather Stations






























Interactive Weather Map
Tropical Storm Tracking
New forecast layout! Learn more

10-Day Weather Forecast

Advertisements
Track Severe Weather on mobile